createdAt,value
2022-12-04T00:01:55.854Z,3.10
2022-12-04T00:04:24.025Z,3.00
2022-12-04T00:06:57.153Z,3.00
2022-12-04T00:09:26.934Z,2.90
2022-12-04T00:11:55.081Z,3.00
2022-12-04T00:14:23.359Z,3.00
2022-12-04T00:16:51.641Z,3.00
2022-12-04T00:19:21.389Z,3.00
2022-12-04T00:21:51.178Z,3.10
2022-12-04T00:24:19.600Z,3.00
2022-12-04T00:26:47.745Z,2.90
2022-12-04T00:29:16.074Z,3.10
2022-12-04T00:31:44.371Z,3.10
2022-12-04T00:34:12.886Z,3.10
2022-12-04T00:36:42.574Z,3.10
2022-12-04T00:39:11.128Z,3.10
2022-12-04T00:41:39.785Z,3.10
2022-12-04T00:44:07.926Z,3.20
2022-12-04T00:46:36.329Z,3.10
2022-12-04T00:49:04.703Z,3.10
2022-12-04T00:51:33.028Z,3.10
2022-12-04T00:54:02.598Z,3.20
2022-12-04T00:56:30.858Z,3.10
2022-12-04T00:59:01.414Z,3.00
2022-12-04T01:01:31.705Z,3.00
2022-12-04T01:04:00.048Z,3.00
2022-12-04T01:06:30.150Z,3.00
2022-12-04T01:08:59.488Z,3.00
2022-12-04T01:11:30.962Z,3.10
2022-12-04T01:13:59.426Z,3.20
2022-12-04T01:16:29.959Z,3.10
2022-12-04T01:18:58.207Z,3.10
2022-12-04T01:21:26.393Z,3.10
2022-12-04T01:23:54.601Z,3.00
2022-12-04T01:26:22.736Z,3.00
2022-12-04T01:28:52.385Z,3.10
2022-12-04T01:31:22.632Z,3.10
2022-12-04T01:33:51.752Z,3.10
2022-12-04T01:36:23.621Z,3.00
2022-12-04T01:38:52.044Z,3.00
2022-12-04T01:41:23.294Z,3.00
2022-12-04T01:44:18.634Z,3.10
2022-12-04T01:46:47.922Z,3.00
2022-12-04T01:49:20.054Z,3.00
2022-12-04T01:51:52.473Z,3.00
2022-12-04T01:54:28.849Z,3.20
2022-12-04T01:57:02.218Z,3.10
2022-12-04T01:59:36.493Z,3.10
2022-12-04T02:02:09.701Z,3.10
2022-12-04T02:04:39.117Z,3.00
2022-12-04T02:07:07.409Z,3.00
2022-12-04T02:09:39.337Z,2.90
2022-12-04T02:12:14.613Z,2.90
2022-12-04T02:14:53.532Z,3.00
2022-12-04T02:17:28.477Z,2.90
2022-12-04T02:20:09.784Z,2.90
2022-12-04T02:23:09.615Z,3.10
2022-12-04T02:25:45.503Z,3.20
2022-12-04T02:28:23.984Z,3.10
2022-12-04T02:30:54.080Z,3.00
2022-12-04T02:33:26.677Z,2.90
2022-12-04T02:36:03.658Z,2.90
2022-12-04T02:38:37.063Z,3.00
2022-12-04T02:41:10.829Z,2.90
2022-12-04T02:43:45.416Z,2.90
2022-12-04T02:46:19.816Z,2.90
2022-12-04T02:48:51.448Z,2.90
2022-12-04T02:51:22.358Z,3.00
2022-12-04T02:53:55.935Z,3.00
2022-12-04T02:56:27.459Z,3.00
2022-12-04T02:59:00.093Z,3.00
2022-12-04T03:01:33.551Z,3.00
2022-12-04T03:04:06.568Z,3.10
2022-12-04T03:06:37.832Z,3.10
2022-12-04T03:09:11.670Z,3.00
2022-12-04T03:11:41.671Z,3.00
2022-12-04T03:14:15.926Z,3.00
2022-12-04T03:16:44.612Z,3.00
2022-12-04T03:19:17.263Z,3.10
2022-12-04T03:21:50.048Z,3.00
2022-12-04T03:24:24.637Z,3.00
2022-12-04T03:26:57.957Z,3.00
2022-12-04T03:29:34.461Z,3.00
2022-12-04T03:32:09.322Z,2.90
2022-12-04T03:34:43.872Z,3.00
2022-12-04T03:37:16.864Z,2.90
2022-12-04T03:39:53.538Z,2.90
2022-12-04T03:42:25.353Z,3.00
2022-12-04T03:45:02.185Z,3.10
2022-12-04T03:47:37.186Z,3.00
2022-12-04T03:50:13.625Z,2.90
2022-12-04T03:52:49.711Z,3.00
2022-12-04T03:55:25.622Z,2.90
2022-12-04T03:57:57.756Z,2.90
2022-12-04T04:00:27.451Z,2.80
2022-12-04T04:03:00.162Z,2.90
2022-12-04T04:05:31.331Z,2.90
2022-12-04T04:08:17.890Z,3.00
2022-12-04T04:10:46.778Z,3.00
2022-12-04T04:13:35.978Z,3.00
2022-12-04T04:16:25.656Z,2.90
2022-12-04T04:19:12.986Z,2.90
2022-12-04T04:22:01.495Z,2.80
2022-12-04T04:24:34.879Z,2.70
2022-12-04T04:27:04.160Z,2.70
2022-12-04T04:29:32.713Z,2.80
2022-12-04T04:32:09.156Z,2.90
2022-12-04T04:34:43.252Z,2.90
2022-12-04T04:37:18.148Z,2.80
2022-12-04T04:39:54.319Z,2.80
2022-12-04T04:42:27.862Z,2.90
2022-12-04T04:45:02.557Z,2.90
2022-12-04T04:47:35.622Z,2.80
2022-12-04T04:50:05.846Z,2.90
2022-12-04T04:52:34.827Z,2.90
2022-12-04T04:55:04.644Z,3.00
2022-12-04T04:57:35.941Z,2.90
2022-12-04T05:00:05.669Z,2.90
2022-12-04T05:02:35.755Z,2.90
2022-12-04T05:05:04.127Z,2.90
2022-12-04T05:07:32.212Z,2.50
2022-12-04T05:10:00.545Z,2.60
2022-12-04T05:12:28.906Z,2.60
2022-12-04T05:14:57.040Z,2.60
2022-12-04T05:17:25.280Z,2.70
2022-12-04T05:19:54.524Z,2.80
2022-12-04T05:22:25.316Z,2.80
2022-12-04T05:24:54.217Z,2.90
2022-12-04T05:27:23.055Z,2.80
2022-12-04T05:29:54.387Z,2.90
2022-12-04T05:32:23.808Z,2.90
2022-12-04T05:34:52.349Z,2.90
2022-12-04T05:37:22.688Z,2.80
2022-12-04T05:39:50.783Z,2.80
2022-12-04T05:42:18.850Z,2.70
2022-12-04T05:44:46.982Z,2.70
2022-12-04T05:47:15.127Z,2.60
2022-12-04T05:49:43.291Z,2.60
2022-12-04T05:52:11.591Z,2.70
2022-12-04T05:54:41.387Z,2.80
2022-12-04T05:57:09.435Z,2.70
2022-12-04T05:59:37.746Z,2.80
2022-12-04T06:02:05.908Z,2.90
2022-12-04T06:04:34.136Z,2.90
2022-12-04T06:07:02.296Z,2.90
2022-12-04T06:09:30.577Z,2.90
2022-12-04T06:12:00.594Z,2.60
2022-12-04T06:14:28.710Z,2.70
2022-12-04T06:16:56.973Z,2.80
2022-12-04T06:19:25.480Z,2.80
2022-12-04T06:21:54.527Z,2.90
2022-12-04T06:24:24.288Z,2.90
2022-12-04T06:27:27.348Z,2.90
2022-12-04T06:29:46.605Z,2.90
2022-12-04T06:32:19.724Z,2.90
2022-12-04T06:34:52.698Z,2.90
2022-12-04T06:37:21.496Z,2.90
2022-12-04T06:39:49.717Z,2.90
2022-12-04T06:42:18.415Z,2.90
2022-12-04T06:44:48.092Z,3.00
2022-12-04T06:47:16.240Z,2.90
2022-12-04T06:49:46.052Z,2.80
2022-12-04T06:52:14.234Z,2.90
2022-12-04T06:54:42.575Z,2.90
2022-12-04T06:57:10.845Z,2.90
2022-12-04T06:59:39.219Z,2.90
2022-12-04T07:02:10.536Z,2.90
2022-12-04T07:04:38.920Z,3.00
2022-12-04T07:07:09.094Z,2.90
2022-12-04T07:09:37.637Z,2.80
2022-12-04T07:12:06.450Z,2.80
2022-12-04T07:14:34.647Z,2.90
2022-12-04T07:17:02.858Z,2.90
2022-12-04T07:19:32.451Z,2.90
2022-12-04T07:22:00.559Z,2.90
2022-12-04T07:24:28.685Z,2.90
2022-12-04T07:26:56.839Z,2.80
2022-12-04T07:29:24.900Z,2.80
2022-12-04T07:31:53.187Z,2.80
2022-12-04T07:34:21.357Z,2.90
2022-12-04T07:36:50.793Z,3.00
2022-12-04T07:39:18.811Z,3.00
2022-12-04T07:41:46.951Z,3.00
2022-12-04T07:44:15.056Z,3.10
2022-12-04T07:46:43.219Z,2.90
2022-12-04T07:49:13.379Z,2.90
2022-12-04T07:51:41.499Z,3.00
2022-12-04T07:54:11.074Z,2.90
2022-12-04T07:56:39.216Z,2.90
2022-12-04T07:59:07.284Z,3.00
2022-12-04T08:01:35.558Z,3.00
2022-12-04T08:04:04.514Z,3.00
2022-12-04T08:06:35.039Z,3.10
2022-12-04T08:09:09.170Z,3.10
2022-12-04T08:11:39.809Z,3.00
2022-12-04T08:14:09.775Z,3.00
2022-12-04T08:16:38.376Z,3.10
2022-12-04T08:19:06.820Z,3.10
2022-12-04T08:21:35.063Z,3.00
2022-12-04T08:24:04.151Z,3.10
2022-12-04T08:26:33.837Z,3.00
2022-12-04T08:29:04.001Z,3.00
2022-12-04T08:31:34.083Z,3.00
2022-12-04T08:34:04.950Z,3.00
2022-12-04T08:36:33.986Z,2.90
2022-12-04T08:39:02.196Z,3.10
2022-12-04T08:41:30.575Z,3.10
2022-12-04T08:43:59.631Z,3.00
2022-12-04T08:46:29.930Z,3.10
2022-12-04T08:48:58.565Z,3.30
2022-12-04T08:51:29.190Z,3.20
2022-12-04T08:53:58.017Z,3.20
2022-12-04T08:56:27.595Z,3.10
2022-12-04T08:58:57.396Z,3.10
2022-12-04T09:01:26.741Z,3.10
2022-12-04T09:03:57.035Z,3.10
2022-12-04T09:06:25.782Z,3.20
2022-12-04T09:08:55.514Z,3.20
2022-12-04T09:11:25.969Z,3.20
2022-12-04T09:13:54.408Z,3.30
2022-12-04T09:16:24.909Z,3.20
2022-12-04T09:18:53.419Z,3.20
2022-12-04T09:21:24.203Z,3.20
2022-12-04T09:23:52.690Z,3.20
2022-12-04T09:26:24.859Z,3.30
2022-12-04T09:28:54.222Z,3.30
2022-12-04T09:31:23.311Z,3.20
2022-12-04T09:33:52.246Z,3.30
2022-12-04T09:36:20.886Z,3.30
2022-12-04T09:38:52.149Z,3.40
2022-12-04T09:41:46.614Z,3.30
2022-12-04T09:44:19.660Z,3.40
2022-12-04T09:46:52.884Z,3.50
2022-12-04T09:49:26.661Z,3.50
2022-12-04T09:51:58.954Z,3.50
2022-12-04T09:54:35.200Z,3.60
2022-12-04T09:57:13.773Z,3.50
2022-12-04T09:59:42.023Z,3.50
2022-12-04T10:02:35.212Z,3.50
2022-12-04T10:05:03.994Z,3.50
2022-12-04T10:07:36.660Z,3.50
2022-12-04T10:10:14.253Z,3.50
2022-12-04T10:12:51.647Z,3.60
2022-12-04T10:15:30.742Z,3.50
2022-12-04T10:18:23.365Z,3.60
2022-12-04T10:21:14.699Z,3.50
2022-12-04T10:23:55.978Z,3.50
2022-12-04T10:26:31.996Z,3.60
2022-12-04T10:29:03.705Z,3.60
2022-12-04T10:31:34.850Z,3.60
2022-12-04T10:34:07.077Z,3.60
2022-12-04T10:36:36.408Z,3.60
2022-12-04T10:39:13.513Z,3.60
2022-12-04T10:41:51.951Z,3.60
2022-12-04T10:44:21.410Z,3.60
2022-12-04T10:46:52.051Z,3.60
2022-12-04T10:49:23.297Z,3.60
2022-12-04T10:51:51.442Z,3.70
2022-12-04T10:54:22.679Z,3.60
2022-12-04T10:56:57.176Z,3.50
2022-12-04T10:59:26.057Z,3.60
2022-12-04T11:02:06.224Z,3.60
2022-12-04T11:04:36.519Z,3.60
2022-12-04T11:07:06.605Z,3.60
2022-12-04T11:09:35.211Z,3.60
2022-12-04T11:12:11.120Z,3.60
2022-12-04T11:14:44.055Z,3.60
2022-12-04T11:17:19.491Z,3.70
2022-12-04T11:19:47.847Z,3.70
2022-12-04T11:22:19.218Z,3.60
2022-12-04T11:24:54.403Z,3.80
2022-12-04T11:27:27.901Z,3.80
2022-12-04T11:29:57.434Z,3.70
2022-12-04T11:32:27.893Z,3.70
2022-12-04T11:35:00.363Z,3.70
2022-12-04T11:37:31.868Z,3.70
2022-12-04T11:40:00.393Z,3.60
2022-12-04T11:42:31.617Z,3.60
2022-12-04T11:45:01.972Z,3.60
2022-12-04T11:47:32.396Z,3.60
2022-12-04T11:50:03.968Z,3.50
2022-12-04T11:52:49.108Z,3.50
2022-12-04T11:55:28.345Z,3.60
2022-12-04T11:58:23.582Z,3.60
2022-12-04T12:01:00.636Z,3.60
2022-12-04T12:03:35.777Z,3.60
2022-12-04T12:06:29.805Z,3.70
2022-12-04T12:09:16.798Z,3.60
2022-12-04T12:11:53.103Z,3.60
2022-12-04T12:14:33.474Z,3.70
2022-12-04T12:17:13.233Z,3.70
2022-12-04T12:20:04.298Z,3.80
2022-12-04T12:22:57.980Z,3.80
2022-12-04T12:25:32.207Z,3.70
2022-12-04T12:28:13.706Z,3.70
2022-12-04T12:31:04.059Z,3.70
2022-12-04T12:33:38.007Z,3.80
2022-12-04T12:36:10.394Z,3.80
2022-12-04T12:38:45.421Z,3.80
2022-12-04T12:41:16.715Z,3.80
2022-12-04T12:43:49.137Z,3.90
2022-12-04T12:46:26.213Z,3.90
2022-12-04T12:49:02.274Z,3.90
2022-12-04T12:51:36.630Z,3.90
2022-12-04T12:54:16.446Z,3.80
2022-12-04T12:56:52.402Z,3.80
2022-12-04T12:59:25.314Z,3.90
2022-12-04T13:02:01.059Z,3.90
2022-12-04T13:04:38.881Z,3.80
2022-12-04T13:07:24.723Z,3.80
2022-12-04T13:09:59.501Z,3.90
2022-12-04T13:12:28.758Z,3.90
2022-12-04T13:14:57.043Z,3.90
2022-12-04T13:17:33.256Z,3.90
2022-12-04T13:20:09.848Z,3.80
2022-12-04T13:22:48.432Z,3.80
2022-12-04T13:25:31.487Z,3.90
2022-12-04T13:28:12.232Z,3.90
2022-12-04T13:30:47.749Z,3.80
2022-12-04T13:33:45.359Z,3.80
2022-12-04T13:36:27.010Z,3.70
2022-12-04T13:39:19.681Z,3.80
2022-12-04T13:41:48.469Z,3.80
2022-12-04T13:44:23.442Z,3.80
2022-12-04T13:46:55.500Z,3.80
2022-12-04T13:49:30.565Z,3.80
2022-12-04T13:52:00.333Z,3.80
2022-12-04T13:54:32.231Z,3.90
2022-12-04T13:57:19.598Z,3.90
2022-12-04T13:59:48.945Z,3.80
2022-12-04T14:02:27.863Z,3.80
2022-12-04T14:05:02.915Z,3.70
2022-12-04T14:07:33.865Z,3.80
2022-12-04T14:10:05.704Z,3.80
2022-12-04T14:12:37.657Z,3.80
2022-12-04T14:15:08.712Z,3.80
2022-12-04T14:17:39.515Z,3.90
2022-12-04T14:20:23.132Z,4.00
2022-12-04T14:22:51.442Z,3.80
2022-12-04T14:25:35.817Z,3.90
2022-12-04T14:28:26.016Z,3.70
2022-12-04T14:31:24.931Z,3.80
2022-12-04T14:33:57.408Z,3.70
2022-12-04T14:36:29.353Z,3.70
2022-12-04T14:39:06.186Z,3.70
2022-12-04T14:41:34.472Z,3.70
2022-12-04T14:44:03.246Z,3.80
2022-12-04T14:46:40.391Z,3.70
2022-12-04T14:49:22.122Z,3.70
2022-12-04T14:52:00.607Z,3.70
2022-12-04T14:54:34.701Z,3.70
2022-12-04T14:57:15.578Z,3.60
2022-12-04T14:59:46.878Z,3.70
2022-12-04T15:02:19.024Z,3.70
2022-12-04T15:04:48.723Z,3.60
2022-12-04T15:07:23.042Z,3.70
2022-12-04T15:10:13.093Z,3.70
2022-12-04T15:12:46.260Z,3.70
2022-12-04T15:15:19.541Z,3.60
2022-12-04T15:18:01.530Z,3.70
2022-12-04T15:20:38.638Z,3.60
2022-12-04T15:23:14.113Z,3.70
2022-12-04T15:25:46.737Z,3.60
2022-12-04T15:28:18.987Z,3.60
2022-12-04T15:30:49.440Z,3.60
2022-12-04T15:33:21.919Z,3.60
2022-12-04T15:35:55.186Z,3.60
2022-12-04T15:38:25.312Z,3.60
2022-12-04T15:40:56.094Z,3.60
2022-12-04T15:43:30.582Z,3.60
2022-12-04T15:45:59.706Z,3.60
2022-12-04T15:48:29.691Z,3.60
2022-12-04T15:51:00.600Z,3.60
2022-12-04T15:53:32.482Z,3.60
2022-12-04T15:56:04.346Z,3.70
2022-12-04T15:58:34.242Z,3.70
2022-12-04T16:01:04.798Z,3.70
2022-12-04T16:03:47.908Z,3.70
2022-12-04T16:06:19.704Z,3.70
2022-12-04T16:08:51.123Z,3.70
2022-12-04T16:11:34.303Z,3.70
2022-12-04T16:14:19.735Z,3.60
2022-12-04T16:16:49.834Z,3.60
2022-12-04T16:19:28.728Z,3.70
2022-12-04T16:21:57.391Z,3.60
2022-12-04T16:24:27.409Z,3.70
2022-12-04T16:26:57.164Z,3.80
2022-12-04T16:29:25.892Z,3.70
2022-12-04T16:31:57.166Z,3.70
2022-12-04T16:34:29.554Z,3.60
2022-12-04T16:36:57.884Z,3.70
2022-12-04T16:39:27.535Z,3.70
2022-12-04T16:41:55.846Z,3.70
2022-12-04T16:44:24.160Z,3.70
2022-12-04T16:46:52.517Z,3.60
2022-12-04T16:49:20.811Z,3.60
2022-12-04T16:51:50.778Z,3.60
2022-12-04T16:54:19.625Z,3.60
2022-12-04T16:56:49.357Z,3.70
2022-12-04T16:59:17.736Z,3.60
2022-12-04T17:01:48.661Z,3.70
2022-12-04T17:04:17.889Z,3.70
2022-12-04T17:06:46.896Z,3.70
2022-12-04T17:09:15.366Z,3.70
2022-12-04T17:11:44.074Z,3.70
2022-12-04T17:14:13.824Z,3.70
2022-12-04T17:16:45.244Z,3.70
2022-12-04T17:19:14.507Z,3.70
2022-12-04T17:21:42.938Z,3.70
2022-12-04T17:24:11.575Z,3.60
2022-12-04T17:26:39.950Z,3.60
2022-12-04T17:29:08.208Z,3.60
2022-12-04T17:31:37.747Z,3.50
2022-12-04T17:34:06.026Z,3.60
2022-12-04T17:36:34.320Z,3.60
2022-12-04T17:39:02.915Z,3.70
2022-12-04T17:41:31.476Z,3.60
2022-12-04T17:44:01.749Z,3.70
2022-12-04T17:46:30.222Z,3.60
2022-12-04T17:49:05.333Z,3.50
2022-12-04T17:51:36.032Z,3.70
2022-12-04T17:54:04.408Z,3.60
2022-12-04T17:56:32.932Z,3.60
2022-12-04T17:59:01.184Z,3.70
2022-12-04T18:01:31.018Z,3.50
2022-12-04T18:04:03.937Z,3.50
2022-12-04T18:06:33.886Z,3.50
2022-12-04T18:09:02.652Z,3.50
2022-12-04T18:11:33.147Z,3.70
2022-12-04T18:14:06.002Z,3.70
2022-12-04T18:16:40.547Z,3.70
2022-12-04T18:19:10.213Z,3.60
2022-12-04T18:21:38.403Z,3.60
2022-12-04T18:24:08.028Z,3.60
2022-12-04T18:26:38.967Z,3.50
2022-12-04T18:29:08.514Z,3.60
2022-12-04T18:31:36.964Z,3.60
2022-12-04T18:34:07.127Z,3.60
2022-12-04T18:36:38.878Z,3.60
2022-12-04T18:39:10.437Z,3.70
2022-12-04T18:41:38.827Z,3.60
2022-12-04T18:44:07.440Z,3.70
2022-12-04T18:46:35.784Z,3.60
2022-12-04T18:49:04.424Z,3.60
2022-12-04T18:51:34.765Z,3.70
2022-12-04T18:54:06.370Z,3.70
2022-12-04T18:56:35.912Z,3.60
2022-12-04T18:59:07.096Z,3.60
2022-12-04T19:01:35.560Z,3.60
2022-12-04T19:04:05.969Z,3.60
2022-12-04T19:06:36.612Z,3.70
2022-12-04T19:09:08.929Z,3.50
2022-12-04T19:11:38.302Z,3.40
2022-12-04T19:14:16.225Z,3.60
2022-12-04T19:16:49.721Z,3.60
2022-12-04T19:19:19.273Z,3.60
2022-12-04T19:21:47.528Z,3.60
2022-12-04T19:24:17.751Z,3.50
2022-12-04T19:26:47.802Z,3.60
2022-12-04T19:29:16.283Z,3.60
2022-12-04T19:31:44.643Z,3.70
2022-12-04T19:34:12.918Z,3.70
2022-12-04T19:36:42.759Z,3.70
2022-12-04T19:39:11.469Z,3.80
2022-12-04T19:41:41.560Z,3.60
2022-12-04T19:44:46.787Z,3.60
2022-12-04T19:46:59.323Z,3.80
2022-12-04T19:49:27.504Z,3.70
2022-12-04T19:51:55.691Z,3.60
2022-12-04T19:54:23.872Z,3.60
2022-12-04T19:56:53.412Z,3.70
2022-12-04T19:59:22.455Z,3.80
2022-12-04T20:01:50.917Z,3.70
2022-12-04T20:04:19.935Z,3.70
2022-12-04T20:06:48.246Z,3.70
2022-12-04T20:09:20.269Z,3.80
2022-12-04T20:11:48.695Z,3.70
2022-12-04T20:14:18.897Z,3.70
2022-12-04T20:16:47.801Z,3.80
2022-12-04T20:19:18.687Z,3.70
2022-12-04T20:21:47.659Z,3.70
2022-12-04T20:24:17.594Z,3.60
2022-12-04T20:26:47.968Z,3.50
2022-12-04T20:29:19.186Z,3.60
2022-12-04T20:31:48.153Z,3.60
2022-12-04T20:34:18.280Z,3.60
2022-12-04T20:36:48.265Z,3.70
2022-12-04T20:39:17.875Z,3.70
2022-12-04T20:41:46.539Z,3.70
2022-12-04T20:44:18.189Z,3.70
2022-12-04T20:46:46.685Z,3.60
2022-12-04T20:49:21.060Z,3.80
2022-12-04T20:51:50.680Z,3.90
2022-12-04T20:54:20.936Z,4.00
2022-12-04T20:56:49.772Z,3.90
2022-12-04T20:59:20.856Z,3.70
2022-12-04T21:01:50.593Z,3.70
2022-12-04T21:04:19.612Z,3.70
2022-12-04T21:06:48.425Z,3.70
2022-12-04T21:09:18.396Z,3.70
2022-12-04T21:11:49.078Z,3.80
2022-12-04T21:14:38.663Z,3.60
2022-12-04T21:17:09.474Z,3.70
2022-12-04T21:19:38.750Z,3.70
2022-12-04T21:22:07.093Z,3.70
2022-12-04T21:24:38.766Z,3.60
2022-12-04T21:27:09.083Z,3.60
2022-12-04T21:29:39.751Z,3.70
2022-12-04T21:32:08.764Z,3.60
2022-12-04T21:34:37.042Z,3.60
2022-12-04T21:37:05.447Z,3.70
2022-12-04T21:39:33.891Z,3.60
2022-12-04T21:42:19.608Z,3.70
2022-12-04T21:44:48.998Z,3.60
2022-12-04T21:47:17.244Z,3.60
2022-12-04T21:49:46.414Z,3.70
2022-12-04T21:52:14.878Z,3.70
2022-12-04T21:54:43.096Z,3.70
2022-12-04T21:57:11.375Z,3.60
2022-12-04T21:59:39.573Z,3.50
2022-12-04T22:02:09.235Z,3.70
2022-12-04T22:04:38.673Z,3.80
2022-12-04T22:07:07.064Z,3.60
2022-12-04T22:09:35.289Z,3.60
2022-12-04T22:12:14.681Z,3.80
2022-12-04T22:14:51.672Z,3.60
2022-12-04T22:17:21.152Z,3.70
2022-12-04T22:19:49.739Z,3.60
2022-12-04T22:22:18.009Z,3.50
2022-12-04T22:24:46.217Z,3.60
2022-12-04T22:27:15.440Z,3.70
2022-12-04T22:30:02.341Z,3.70
2022-12-04T22:32:32.148Z,3.70
2022-12-04T22:35:00.295Z,3.80
2022-12-04T22:37:28.897Z,3.80
2022-12-04T22:39:57.180Z,3.80
2022-12-04T22:42:25.669Z,3.70
2022-12-04T22:44:53.854Z,3.60
2022-12-04T22:47:22.206Z,3.70
2022-12-04T22:49:51.833Z,3.70
2022-12-04T22:52:20.345Z,3.60
2022-12-04T22:54:50.729Z,3.60
2022-12-04T22:57:19.127Z,3.60
2022-12-04T22:59:47.559Z,3.70
2022-12-04T23:02:15.994Z,3.60
2022-12-04T23:04:45.208Z,3.70
2022-12-04T23:07:14.816Z,3.60
2022-12-04T23:09:43.341Z,3.50
2022-12-04T23:12:11.523Z,3.50
2022-12-04T23:14:39.652Z,3.50
2022-12-04T23:17:07.953Z,3.60
2022-12-04T23:19:36.286Z,3.70
2022-12-04T23:22:04.783Z,3.70
2022-12-04T23:24:38.090Z,3.70
2022-12-04T23:27:06.570Z,3.60
2022-12-04T23:29:52.884Z,3.60
2022-12-04T23:32:21.621Z,3.70
2022-12-04T23:34:49.907Z,3.80
2022-12-04T23:37:18.144Z,3.90
2022-12-04T23:39:47.808Z,3.90
2022-12-04T23:42:16.061Z,3.80
2022-12-04T23:44:44.192Z,3.80
2022-12-04T23:47:12.525Z,3.70
2022-12-04T23:49:40.707Z,3.50
2022-12-04T23:52:08.960Z,3.50
2022-12-04T23:54:37.750Z,3.60
2022-12-04T23:57:07.564Z,3.60
2022-12-04T23:59:35.712Z,3.50
